createdAt,value
2022-09-16T00:04:33.811Z,100135.81
2022-09-16T00:09:27.062Z,100144.03
2022-09-16T00:14:20.145Z,100156.25
2022-09-16T00:19:13.596Z,100156.03
2022-09-16T00:24:08.510Z,100125.28
2022-09-16T00:29:01.772Z,100128.53
2022-09-16T00:33:54.876Z,100148.34
2022-09-16T00:38:52.528Z,100016.16
2022-09-16T00:43:51.862Z,100158.16
2022-09-16T00:48:45.352Z,100148.19
2022-09-16T00:53:45.664Z,100149.84
2022-09-16T00:58:47.035Z,100157.00
2022-09-16T01:03:46.940Z,100153.69
2022-09-16T01:08:40.551Z,100081.03
2022-09-16T01:13:33.745Z,100149.03
2022-09-16T01:18:38.645Z,100149.59
2022-09-16T01:24:11.253Z,100147.00
2022-09-16T01:29:25.663Z,100145.25
2022-09-16T01:34:28.473Z,100171.72
2022-09-16T01:39:31.201Z,100164.97
2022-09-16T01:44:30.213Z,100170.78
2022-09-16T01:49:35.377Z,100153.38
2022-09-16T01:54:35.171Z,100163.53
2022-09-16T01:59:35.746Z,100157.84
2022-09-16T02:04:36.256Z,100178.16
2022-09-16T02:09:34.876Z,100166.97
2022-09-16T02:14:31.410Z,100164.97
2022-09-16T02:19:27.805Z,100099.22
2022-09-16T02:24:23.838Z,100147.84
2022-09-16T02:29:24.646Z,100186.59
2022-09-16T02:34:25.954Z,100179.03
2022-09-16T02:39:27.902Z,100188.72
2022-09-16T02:44:25.683Z,100183.53
2022-09-16T02:49:27.793Z,100191.63
2022-09-16T02:54:27.298Z,100214.44
2022-09-16T02:59:20.536Z,100203.22
2022-09-16T03:04:16.716Z,100187.34
2022-09-16T03:09:12.368Z,100180.66
2022-09-16T03:14:31.106Z,100210.19
2022-09-16T03:19:31.649Z,100147.16
2022-09-16T03:24:37.935Z,100199.53
2022-09-16T03:29:45.712Z,100204.22
2022-09-16T03:34:43.799Z,100197.25
2022-09-16T03:39:38.155Z,100186.38
2022-09-16T03:44:37.149Z,100138.50
2022-09-16T03:49:30.810Z,100169.34
2022-09-16T03:54:25.503Z,100127.03
2022-09-16T03:59:19.043Z,100170.16
2022-09-16T04:04:16.788Z,100205.94
2022-09-16T04:09:17.077Z,100159.50
2022-09-16T04:14:11.176Z,100205.25
2022-09-16T04:19:05.534Z,100153.56
2022-09-16T04:24:03.236Z,100202.81
2022-09-16T04:28:59.219Z,100213.22
2022-09-16T04:33:52.380Z,100232.88
2022-09-16T04:38:47.551Z,100158.50
2022-09-16T04:43:42.844Z,100229.25
2022-09-16T04:48:36.207Z,100188.34
2022-09-16T04:53:32.164Z,100188.38
2022-09-16T04:58:25.441Z,100174.09
2022-09-16T05:03:20.057Z,100237.09
2022-09-16T05:08:13.321Z,100181.03
2022-09-16T05:13:09.650Z,100134.59
2022-09-16T05:18:02.936Z,100240.16
2022-09-16T05:22:57.498Z,100262.44
2022-09-16T05:27:50.623Z,100257.16
2022-09-16T05:32:43.947Z,100286.69
2022-09-16T05:37:37.089Z,100237.56
2022-09-16T05:42:32.104Z,100277.69
2022-09-16T05:47:25.628Z,100211.38
2022-09-16T05:52:19.060Z,100161.47
2022-09-16T05:57:12.707Z,100158.16
2022-09-16T06:02:07.902Z,100297.88
2022-09-16T06:07:02.232Z,100255.91
2022-09-16T06:12:02.372Z,100207.00
2022-09-16T06:16:55.692Z,100235.41
2022-09-16T06:21:52.036Z,100210.06
2022-09-16T06:26:46.575Z,100171.81
2022-09-16T06:31:40.300Z,100269.91
2022-09-16T06:36:35.701Z,100246.31
2022-09-16T06:41:32.404Z,100200.94
2022-09-16T06:46:27.349Z,100260.22
2022-09-16T06:51:23.185Z,100194.72
2022-09-16T06:56:18.253Z,100242.94
2022-09-16T07:01:15.492Z,100167.06
2022-09-16T07:06:09.686Z,100272.13
2022-09-16T07:11:04.991Z,100316.03
2022-09-16T07:16:12.920Z,100253.44
2022-09-16T07:21:10.742Z,100262.97
2022-09-16T07:26:06.584Z,100334.81
2022-09-16T07:31:02.561Z,100301.78
2022-09-16T07:36:07.574Z,100234.09
2022-09-16T07:41:08.137Z,100298.81
2022-09-16T07:46:03.765Z,100343.94
2022-09-16T07:50:58.254Z,100354.09
2022-09-16T07:55:53.630Z,100329.72
2022-09-16T08:00:49.916Z,100316.91
2022-09-16T08:05:51.851Z,100219.31
2022-09-16T08:10:51.509Z,100237.28
2022-09-16T08:15:44.886Z,100303.41
2022-09-16T08:20:39.980Z,100318.94
2022-09-16T08:25:33.318Z,100262.41
2022-09-16T08:30:26.580Z,100286.81
2022-09-16T08:35:20.304Z,100208.63
2022-09-16T08:45:28.951Z,100215.28
2022-09-16T08:50:30.155Z,100209.13
2022-09-16T08:55:31.789Z,100304.75
2022-09-16T09:00:25.162Z,100310.72
2022-09-16T09:05:25.375Z,100207.47
2022-09-16T09:10:27.236Z,100190.00
2022-09-16T09:15:41.024Z,100288.50
2022-09-16T09:20:46.503Z,100292.13
2022-09-16T09:25:50.459Z,100295.53
2022-09-16T09:30:53.873Z,100173.16
2022-09-16T09:36:05.857Z,100230.03
2022-09-16T09:41:12.223Z,100238.72
2022-09-16T09:46:16.260Z,100248.66
2022-09-16T09:51:29.050Z,100248.19
2022-09-16T09:56:31.789Z,100284.06
2022-09-16T10:01:25.378Z,100283.63
2022-09-16T10:06:23.207Z,100226.97
2022-09-16T10:11:19.417Z,100237.94
2022-09-16T10:16:18.467Z,100285.53
2022-09-16T10:21:14.564Z,100183.81
2022-09-16T10:26:26.630Z,100273.88
2022-09-16T10:31:21.551Z,100225.19
2022-09-16T10:36:22.541Z,100202.59
2022-09-16T10:41:18.176Z,100188.31
2022-09-16T10:46:16.053Z,100247.66
2022-09-16T10:51:23.990Z,100173.63
2022-09-16T10:56:19.861Z,100179.78
2022-09-16T11:01:29.929Z,100259.22
2022-09-16T11:06:37.092Z,100188.13
2022-09-16T11:11:47.879Z,100240.47
2022-09-16T11:16:59.804Z,100241.50
2022-09-16T11:22:12.329Z,100241.41
2022-09-16T11:27:20.150Z,100198.03
2022-09-16T11:32:29.513Z,100248.50
2022-09-16T11:37:31.498Z,100165.13
2022-09-16T11:42:35.153Z,100206.03
2022-09-16T11:47:55.303Z,100229.69
2022-09-16T11:53:24.874Z,100107.47
2022-09-16T11:58:33.461Z,100201.44
2022-09-16T12:03:40.955Z,100193.13
2022-09-16T12:08:44.335Z,100208.97
2022-09-16T12:13:41.106Z,100215.88
2022-09-16T12:18:38.704Z,100196.09
2022-09-16T12:23:37.327Z,100148.28
2022-09-16T12:28:35.965Z,100173.84
2022-09-16T12:33:34.848Z,100153.75
2022-09-16T12:38:31.163Z,100073.16
2022-09-16T12:43:48.069Z,100185.34
2022-09-16T12:48:59.343Z,100182.19
2022-09-16T12:54:18.452Z,100129.69
2022-09-16T12:59:34.391Z,100195.78
2022-09-16T13:04:32.537Z,100181.41
2022-09-16T13:09:31.103Z,100159.88
2022-09-16T13:14:25.586Z,100210.19
2022-09-16T13:19:44.618Z,100211.78
2022-09-16T13:24:45.627Z,100195.38
2022-09-16T13:29:44.842Z,100220.31
2022-09-16T13:34:38.116Z,100182.34
2022-09-16T13:39:34.897Z,100206.53
2022-09-16T13:44:42.332Z,100173.13
2022-09-16T13:49:44.594Z,100122.66
2022-09-16T13:55:06.277Z,100162.44
2022-09-16T14:00:15.409Z,100119.34
2022-09-16T14:05:43.022Z,100203.94
2022-09-16T14:10:49.222Z,100172.53
2022-09-16T14:15:45.355Z,100172.13
2022-09-16T14:20:38.641Z,100158.63
2022-09-16T14:25:43.030Z,100085.50
2022-09-16T14:30:39.352Z,100189.94
2022-09-16T14:35:32.655Z,100186.94
2022-09-16T14:40:29.099Z,100184.75
2022-09-16T14:45:24.144Z,100100.69
2022-09-16T14:50:30.289Z,100049.75
2022-09-16T15:01:00.278Z,100170.22
2022-09-16T15:05:56.497Z,100182.56
2022-09-16T15:10:56.504Z,100137.81
2022-09-16T15:15:54.576Z,100069.75
2022-09-16T15:20:53.729Z,100177.19
2022-09-16T15:25:54.789Z,100078.16
2022-09-16T15:30:54.261Z,100173.50
2022-09-16T15:36:30.089Z,100023.31
2022-09-16T15:41:26.232Z,100100.38
2022-09-16T15:46:25.293Z,100056.03
2022-09-16T15:51:29.360Z,100161.28
2022-09-16T15:56:30.231Z,100067.88
2022-09-16T16:01:38.889Z,100093.16
2022-09-16T16:06:52.261Z,100033.19
2022-09-16T16:11:46.974Z,100139.84
2022-09-16T16:16:55.489Z,100131.94
2022-09-16T16:21:54.973Z,100130.75
2022-09-16T16:26:52.626Z,100077.16
2022-09-16T16:32:10.124Z,100051.19
2022-09-16T16:37:06.341Z,100111.63
2022-09-16T16:42:05.186Z,100069.81
2022-09-16T16:46:58.485Z,100074.31
2022-09-16T16:51:52.971Z,100046.66
2022-09-16T16:56:46.889Z,100057.75
2022-09-16T17:01:46.567Z,100116.81
2022-09-16T17:06:41.762Z,100089.38
2022-09-16T17:11:35.859Z,100067.28
2022-09-16T17:16:30.884Z,100075.00
2022-09-16T17:21:27.270Z,100112.84
2022-09-16T17:26:21.652Z,100068.88
2022-09-16T17:31:17.171Z,100106.47
2022-09-16T17:36:17.339Z,100060.72
2022-09-16T17:41:17.179Z,100036.06
2022-09-16T17:46:22.599Z,100122.59
2022-09-16T17:51:17.047Z,100038.28
2022-09-16T17:56:13.699Z,100049.31
2022-09-16T18:01:08.729Z,100110.19
2022-09-16T18:06:11.769Z,100124.66
2022-09-16T18:11:05.761Z,100100.81
2022-09-16T18:16:05.491Z,100164.53
2022-09-16T18:21:01.735Z,100143.78
2022-09-16T18:25:55.011Z,100062.78
2022-09-16T18:30:48.233Z,100121.22
2022-09-16T18:35:45.808Z,100064.50
2022-09-16T18:40:39.699Z,100118.63
2022-09-16T18:45:33.055Z,100088.47
2022-09-16T18:50:26.208Z,100096.31
2022-09-16T18:55:21.259Z,100058.03
2022-09-16T19:00:15.114Z,100044.38
2022-09-16T19:05:10.786Z,100173.47
2022-09-16T19:10:04.683Z,100056.06
2022-09-16T19:15:00.170Z,100164.25
2022-09-16T19:19:53.679Z,100111.41
2022-09-16T19:24:47.446Z,100145.66
2022-09-16T19:29:40.618Z,100188.69
2022-09-16T19:34:37.596Z,100104.06
2022-09-16T19:39:32.217Z,100096.75
2022-09-16T19:44:25.476Z,100184.09
2022-09-16T19:49:21.205Z,100154.84
2022-09-16T19:54:24.221Z,100163.28
2022-09-16T19:59:17.919Z,100147.13
2022-09-16T20:04:11.249Z,100171.63
2022-09-16T20:09:07.647Z,100138.41
2022-09-16T20:14:06.762Z,100093.78
2022-09-16T20:18:59.961Z,100123.28
2022-09-16T20:23:57.112Z,100067.09
2022-09-16T20:28:52.043Z,100145.81
2022-09-16T20:33:46.681Z,100040.34
2022-09-16T20:38:43.462Z,100174.56
2022-09-16T20:43:59.729Z,100111.56
2022-09-16T20:48:58.149Z,100180.59
2022-09-16T20:53:57.559Z,100140.84
2022-09-16T20:58:50.634Z,100192.47
2022-09-16T21:03:44.696Z,100179.13
2022-09-16T21:08:39.947Z,100137.78
2022-09-16T21:13:33.450Z,100169.09
2022-09-16T21:18:57.502Z,100174.22
2022-09-16T21:23:53.251Z,100109.50
2022-09-16T21:28:49.218Z,100042.66
2022-09-16T21:33:53.555Z,100107.13
2022-09-16T21:39:09.204Z,100143.81
2022-09-16T21:44:03.912Z,100174.94
2022-09-16T21:49:01.360Z,100116.34
2022-09-16T21:53:56.204Z,100094.22
2022-09-16T21:58:51.122Z,100167.31
2022-09-16T22:03:45.799Z,100165.44
2022-09-16T22:08:39.106Z,100180.47
2022-09-16T22:13:34.611Z,100159.56
2022-09-16T22:18:29.921Z,100143.72
2022-09-16T22:23:23.190Z,100137.56
2022-09-16T22:28:16.355Z,100155.72
2022-09-16T22:33:10.961Z,100080.41
2022-09-16T22:38:04.890Z,100090.16
2022-09-16T22:43:22.098Z,100023.91
2022-09-16T22:48:24.613Z,100092.31
2022-09-16T22:53:20.203Z,100095.75
2022-09-16T22:58:13.354Z,100101.25
2022-09-16T23:03:06.421Z,100072.47
2022-09-16T23:08:01.092Z,100106.00
2022-09-16T23:12:54.455Z,100050.41
2022-09-16T23:17:47.791Z,100106.00
2022-09-16T23:22:40.934Z,100103.50
2022-09-16T23:27:42.266Z,100094.25
2022-09-16T23:32:35.546Z,100031.34
2022-09-16T23:37:30.642Z,100087.19
2022-09-16T23:42:23.888Z,100073.50
2022-09-16T23:47:18.477Z,99985.34
2022-09-16T23:52:11.886Z,100079.28
2022-09-16T23:57:05.151Z,99989.56
